Time;durP1;ratioP1;P1;durP2;ratioP2;P2;SDS_P1;SDS_P2;PMS_P1;PMS_P2;Temp;Humidity;BMP_temperature;BMP_pressure;BME280_temperature;BME280_humidity;BME280_pressure;Samples;Min_cycle;Max_cycle;Signal;HPM_P1;HPM_P2
2021/12/20 00:00:22;;;;;;;14.57;8.02;;;9.70;99.90;;;;;;5078943;28;20186;-80
2021/12/20 00:02:51;;;;;;;14.18;7.40;;;9.60;99.90;;;;;;5079531;28;20238;-80
2021/12/20 00:05:19;;;;;;;10.77;7.20;;;9.70;99.90;;;;;;5076851;28;20267;-81
2021/12/20 00:07:45;;;;;;;16.42;8.40;;;9.70;99.90;;;;;;5074375;28;20213;-80
2021/12/20 00:10:11;;;;;;;20.70;7.22;;;9.70;99.90;;;;;;5075349;28;20518;-80
2021/12/20 00:12:36;;;;;;;10.55;5.90;;;10.00;99.90;;;;;;5075342;28;20174;-80
2021/12/20 00:15:03;;;;;;;11.13;5.45;;;10.10;99.90;;;;;;5075019;28;20165;-81
2021/12/20 00:17:29;;;;;;;9.90;6.20;;;9.90;99.90;;;;;;5074755;28;20182;-81
2021/12/20 00:19:54;;;;;;;11.93;6.57;;;9.90;99.90;;;;;;5074032;28;20197;-80
2021/12/20 00:22:20;;;;;;;13.48;5.95;;;9.90;99.90;;;;;;5075223;28;20175;-78
2021/12/20 00:24:45;;;;;;;7.75;5.70;;;10.10;99.90;;;;;;5074697;28;20185;-78
2021/12/20 00:27:13;;;;;;;10.52;5.68;;;10.10;99.90;;;;;;5074704;28;20212;-78
2021/12/20 00:29:39;;;;;;;11.73;5.47;;;10.00;99.90;;;;;;5075289;28;20165;-78
2021/12/20 00:32:05;;;;;;;10.52;5.35;;;9.80;99.90;;;;;;5075077;28;20187;-78
2021/12/20 00:34:31;;;;;;;14.13;6.28;;;9.40;99.90;;;;;;5057368;28;20174;-79
2021/12/20 00:37:02;;;;;;;10.95;5.88;;;9.50;99.90;;;;;;5074890;28;20170;-77
2021/12/20 00:42:12;;;;;;;12.07;5.32;;;9.40;99.90;;;;;;5074660;28;20204;-78
2021/12/20 00:44:38;;;;;;;11.82;5.75;;;9.30;99.90;;;;;;5074747;28;20170;-78
2021/12/20 00:47:04;;;;;;;6.85;5.10;;;9.50;99.90;;;;;;5074252;28;20195;-77
2021/12/20 00:49:30;;;;;;;9.18;5.32;;;9.70;99.90;;;;;;5074546;28;20171;-77
2021/12/20 00:51:55;;;;;;;15.40;6.60;;;9.90;99.90;;;;;;5074270;28;20634;-77
2021/12/20 00:54:21;;;;;;;10.20;5.78;;;10.20;99.90;;;;;;5074249;28;20647;-78
2021/12/20 00:56:48;;;;;;;9.32;6.50;;;10.20;99.90;;;;;;5074511;28;20158;-77
2021/12/20 00:59:15;;;;;;;11.32;6.65;;;10.10;99.90;;;;;;5074449;28;20665;-77
2021/12/20 01:01:40;;;;;;;8.35;5.82;;;10.10;99.90;;;;;;5074078;28;20167;-77
2021/12/20 01:04:06;;;;;;;9.02;5.65;;;10.00;99.90;;;;;;5074132;28;20173;-77
2021/12/20 01:06:32;;;;;;;12.60;5.47;;;9.80;99.90;;;;;;5074011;28;20186;-78
2021/12/20 01:08:58;;;;;;;8.50;5.45;;;9.50;99.90;;;;;;5072777;28;20582;-77
2021/12/20 01:11:26;;;;;;;9.07;5.50;;;9.70;99.90;;;;;;5074272;28;20220;-78
2021/12/20 01:13:53;;;;;;;11.20;6.40;;;9.60;99.90;;;;;;5074121;28;20170;-78
2021/12/20 01:16:28;;;;;;;10.43;5.53;;;9.40;99.90;;;;;;5074213;28;20162;-77
2021/12/20 01:18:54;;;;;;;13.25;6.55;;;9.60;99.90;;;;;;5075613;28;20193;-78
2021/12/20 01:21:20;;;;;;;15.95;5.72;;;9.70;99.90;;;;;;5078841;28;20166;-78
2021/12/20 01:23:45;;;;;;;14.88;6.60;;;9.80;99.90;;;;;;5081028;28;20617;-78
2021/12/20 01:26:11;;;;;;;16.17;6.30;;;10.00;99.90;;;;;;5077532;28;20186;-77
2021/12/20 01:28:37;;;;;;;10.65;6.68;;;10.20;99.90;;;;;;5081539;28;20205;-77
2021/12/20 01:31:02;;;;;;;13.85;6.75;;;10.20;99.90;;;;;;5096873;28;20150;-77
2021/12/20 01:33:28;;;;;;;10.68;6.72;;;10.20;99.90;;;;;;5095011;28;20218;-77
2021/12/20 01:35:56;;;;;;;13.65;6.25;;;10.10;99.90;;;;;;5091042;28;20174;-77
2021/12/20 01:38:22;;;;;;;10.20;6.93;;;9.90;99.90;;;;;;5093335;28;20189;-77
2021/12/20 01:40:48;;;;;;;11.00;7.25;;;9.90;99.90;;;;;;5073650;28;20159;-78
2021/12/20 01:43:16;;;;;;;13.48;7.93;;;9.90;99.90;;;;;;5071961;28;20182;-76
2021/12/20 01:45:42;;;;;;;12.93;7.60;;;9.70;99.90;;;;;;5072243;28;20171;-78
2021/12/20 01:48:11;;;;;;;11.80;7.80;;;9.80;99.90;;;;;;5072143;28;20209;-77
2021/12/20 01:53:06;;;;;;;21.48;9.40;;;9.50;99.90;;;;;;5074112;28;20174;-77
2021/12/20 01:55:31;;;;;;;17.05;9.57;;;9.40;99.90;;;;;;5073066;28;20159;-76
2021/12/20 01:57:58;;;;;;;18.27;9.55;;;9.60;99.90;;;;;;5081679;28;20186;-78
2021/12/20 02:00:27;;;;;;;20.80;8.75;;;9.80;99.90;;;;;;5083808;28;20212;-78
2021/12/20 02:03:01;;;;;;;19.30;9.95;;;9.90;99.90;;;;;;5082222;28;20170;-78
2021/12/20 02:08:13;;;;;;;14.35;9.45;;;9.50;99.90;;;;;;5096512;28;20278;-76
2021/12/20 02:10:40;;;;;;;16.58;8.93;;;9.40;99.90;;;;;;5083420;28;20588;-78
2021/12/20 02:13:06;;;;;;;16.85;9.27;;;9.60;99.90;;;;;;5078011;28;20182;-77
2021/12/20 02:15:32;;;;;;;15.10;10.43;;;9.60;99.90;;;;;;5077936;28;20170;-78
2021/12/20 02:17:58;;;;;;;17.08;10.52;;;9.70;99.90;;;;;;5078074;28;20193;-77
2021/12/20 02:20:26;;;;;;;21.67;10.75;;;9.70;99.90;;;;;;5078012;28;20265;-77
2021/12/20 02:22:56;;;;;;;21.13;10.43;;;9.80;99.90;;;;;;5074212;28;20163;-78
2021/12/20 02:25:23;;;;;;;19.30;9.07;;;9.80;99.90;;;;;;5079819;28;20273;-76
2021/12/20 02:27:48;;;;;;;15.98;10.02;;;9.40;99.90;;;;;;5074762;28;20217;-78
2021/12/20 02:30:39;;;;;;;15.25;10.27;;;9.30;99.90;;;;;;5075067;28;20174;-77
2021/12/20 02:38:33;;;;;;;25.60;12.38;;;9.60;99.90;;;;;;5076369;28;20213;-77
2021/12/20 02:41:15;;;;;;;15.18;10.55;;;9.60;99.90;;;;;;5077023;28;20170;-76
2021/12/20 02:43:52;;;;;;;22.10;11.63;;;9.70;99.90;;;;;;5078702;28;20534;-78
2021/12/20 02:49:18;;;;;;;14.23;10.48;;;9.60;99.90;;;;;;5079657;28;20217;-77
2021/12/20 02:51:45;;;;;;;14.73;10.13;;;9.70;99.90;;;;;;5075915;28;20246;-77
2021/12/20 02:54:12;;;;;;;16.88;10.73;;;9.80;99.90;;;;;;5075957;28;20170;-78
2021/12/20 02:56:38;;;;;;;22.77;10.93;;;9.70;99.90;;;;;;5075005;28;20185;-77
2021/12/20 02:59:06;;;;;;;23.13;11.35;;;9.80;99.90;;;;;;5077432;28;20186;-79
2021/12/20 03:01:32;;;;;;;15.38;11.45;;;9.90;99.90;;;;;;5082624;28;20170;-79
2021/12/20 03:04:00;;;;;;;20.30;11.57;;;9.90;99.90;;;;;;5077900;28;20159;-79
2021/12/20 03:06:46;;;;;;;23.75;11.68;;;9.80;99.90;;;;;;5081592;28;20212;-79
2021/12/20 03:09:16;;;;;;;17.02;10.00;;;10.00;99.90;;;;;;5076140;28;20277;-79
2021/12/20 03:11:43;;;;;;;24.35;11.18;;;9.90;99.90;;;;;;5076647;28;20162;-79
2021/12/20 03:14:16;;;;;;;18.55;11.13;;;10.00;99.90;;;;;;5077052;28;20281;-78
2021/12/20 03:16:42;;;;;;;15.32;9.40;;;9.90;99.90;;;;;;5075490;28;20177;-78
2021/12/20 03:19:08;;;;;;;11.25;10.13;;;10.00;99.90;;;;;;5076867;28;20557;-78
2021/12/20 03:21:34;;;;;;;23.10;11.00;;;10.00;99.90;;;;;;5076187;28;20165;-79
2021/12/20 03:24:00;;;;;;;14.23;8.68;;;10.10;99.90;;;;;;5075665;28;20504;-79
2021/12/20 03:26:26;;;;;;;17.27;9.63;;;9.90;99.90;;;;;;5077905;28;20631;-79
2021/12/20 03:28:51;;;;;;;14.20;7.47;;;9.90;99.90;;;;;;5079386;28;20278;-79
2021/12/20 03:31:18;;;;;;;14.13;8.13;;;10.00;99.90;;;;;;5080830;28;20165;-80
2021/12/20 03:33:44;;;;;;;11.32;8.07;;;9.80;99.90;;;;;;5078485;28;20215;-79
2021/12/20 03:36:11;;;;;;;16.20;8.82;;;9.80;99.90;;;;;;5076825;28;20167;-78
2021/12/20 03:38:37;;;;;;;11.55;7.85;;;9.70;99.90;;;;;;5076636;28;20194;-79
2021/12/20 03:41:02;;;;;;;11.20;8.00;;;9.80;99.90;;;;;;5088077;28;20171;-79
2021/12/20 03:43:31;;;;;;;12.02;7.22;;;9.70;99.90;;;;;;5077751;28;20232;-79
2021/12/20 03:46:00;;;;;;;9.00;6.22;;;9.70;99.90;;;;;;5075734;28;20159;-80
2021/12/20 03:48:26;;;;;;;17.52;7.85;;;9.60;99.90;;;;;;5075346;28;20612;-80
2021/12/20 03:50:53;;;;;;;12.13;6.45;;;9.60;99.90;;;;;;5075334;28;20162;-79
2021/12/20 03:53:19;;;;;;;10.38;5.78;;;9.70;99.90;;;;;;5075403;28;20166;-79
2021/12/20 03:55:45;;;;;;;10.13;6.07;;;9.40;99.90;;;;;;5083654;28;20166;-79
2021/12/20 03:58:12;;;;;;;7.65;5.55;;;9.10;99.90;;;;;;5079505;28;20225;-79
2021/12/20 04:00:39;;;;;;;7.53;4.78;;;9.00;99.90;;;;;;5068054;28;20175;-78
2021/12/20 04:03:10;;;;;;;12.15;6.45;;;9.20;99.90;;;;;;5078192;28;20180;-79
2021/12/20 04:05:36;;;;;;;11.25;5.88;;;9.30;99.90;;;;;;5086400;28;20182;-78
2021/12/20 04:08:03;;;;;;;8.45;5.72;;;9.20;99.90;;;;;;5082545;28;20272;-78
2021/12/20 04:10:29;;;;;;;11.85;6.30;;;9.00;99.90;;;;;;5078580;28;20178;-78
2021/12/20 04:12:55;;;;;;;9.35;5.95;;;9.00;99.90;;;;;;5078250;28;20170;-78
2021/12/20 04:15:24;;;;;;;9.95;4.40;;;9.00;99.90;;;;;;5084715;28;20173;-79
2021/12/20 04:17:49;;;;;;;10.60;5.55;;;9.10;99.90;;;;;;5084198;28;20202;-78
2021/12/20 04:20:15;;;;;;;11.82;5.60;;;9.10;99.90;;;;;;5083500;28;20606;-78
2021/12/20 04:22:41;;;;;;;7.43;5.82;;;9.10;99.90;;;;;;5082294;28;20174;-79
2021/12/20 04:25:07;;;;;;;7.43;5.25;;;8.90;99.90;;;;;;5082517;28;20187;-78
2021/12/20 04:27:33;;;;;;;11.93;5.43;;;9.00;99.90;;;;;;5084553;28;20741;-78
2021/12/20 04:29:59;;;;;;;4.60;3.60;;;8.90;99.90;;;;;;5086667;28;20170;-79
2021/12/20 04:32:25;;;;;;;7.22;4.40;;;8.90;99.90;;;;;;5082664;28;20202;-78
2021/12/20 04:34:50;;;;;;;7.55;4.65;;;8.80;99.90;;;;;;5082685;28;20189;-78
2021/12/20 04:37:16;;;;;;;11.73;4.07;;;8.90;99.90;;;;;;5079204;28;20241;-78
2021/12/20 04:39:42;;;;;;;14.50;4.60;;;9.00;99.90;;;;;;5081975;28;20576;-78
2021/12/20 04:42:11;;;;;;;11.00;4.10;;;9.10;99.90;;;;;;5084610;28;20171;-79
2021/12/20 04:44:37;;;;;;;8.90;3.85;;;8.90;99.90;;;;;;5098481;28;20149;-78
2021/12/20 04:47:03;;;;;;;11.98;3.92;;;8.80;99.90;;;;;;5085396;28;20194;-79
2021/12/20 04:49:28;;;;;;;5.93;4.13;;;9.00;99.90;;;;;;5077408;28;20171;-79
2021/12/20 04:51:54;;;;;;;6.22;3.22;;;9.00;99.90;;;;;;5078421;28;20209;-79
2021/12/20 04:54:21;;;;;;;9.77;3.00;;;8.90;99.90;;;;;;5079808;28;20173;-79
2021/12/20 04:56:48;;;;;;;11.80;3.35;;;8.90;99.90;;;;;;5078495;28;20643;-79
2021/12/20 04:59:13;;;;;;;3.38;2.55;;;9.20;99.90;;;;;;5079372;28;20270;-79
2021/12/20 05:01:39;;;;;;;6.32;3.20;;;9.20;99.90;;;;;;5079793;28;20182;-79
2021/12/20 05:04:05;;;;;;;6.60;3.05;;;9.40;99.90;;;;;;5057177;28;20183;-79
2021/12/20 05:06:32;;;;;;;9.88;3.28;;;9.50;99.90;;;;;;5074259;28;20185;-79
2021/12/20 05:08:58;;;;;;;11.25;4.13;;;9.40;99.90;;;;;;5073906;28;20545;-80
2021/12/20 05:11:25;;;;;;;4.32;3.20;;;9.20;99.90;;;;;;5073799;28;20526;-78
2021/12/20 05:13:51;;;;;;;16.92;4.25;;;9.40;99.90;;;;;;5073771;28;20170;-79
2021/12/20 05:16:17;;;;;;;8.05;2.80;;;9.40;99.90;;;;;;5073775;28;20158;-79
2021/12/20 05:18:43;;;;;;;12.45;3.22;;;9.30;99.90;;;;;;5073406;28;20537;-79
2021/12/20 05:21:08;;;;;;;8.63;3.10;;;9.10;99.90;;;;;;5073725;28;20177;-78
2021/12/20 05:23:34;;;;;;;9.52;2.53;;;8.80;99.90;;;;;;5073508;28;20166;-78
2021/12/20 05:25:59;;;;;;;6.90;2.78;;;8.90;99.90;;;;;;5073606;28;20205;-79
2021/12/20 05:28:26;;;;;;;18.92;3.00;;;9.10;99.90;;;;;;5073470;28;20201;-79
2021/12/20 05:30:52;;;;;;;10.48;4.00;;;9.00;99.90;;;;;;5073426;28;20185;-78
2021/12/20 05:33:20;;;;;;;9.32;2.92;;;8.80;99.90;;;;;;5072115;28;20534;-79
2021/12/20 05:35:46;;;;;;;7.43;2.90;;;8.70;99.90;;;;;;5073441;28;20159;-79
2021/12/20 05:38:13;;;;;;;7.95;2.50;;;8.70;99.90;;;;;;5071765;28;20614;-80
2021/12/20 05:40:39;;;;;;;9.90;2.63;;;8.80;99.90;;;;;;5071956;28;20257;-79
2021/12/20 05:43:05;;;;;;;7.53;3.13;;;8.70;99.90;;;;;;5071770;28;20197;-79
2021/12/20 05:45:30;;;;;;;7.93;2.78;;;8.90;99.90;;;;;;5073135;28;20182;-79
2021/12/20 05:47:56;;;;;;;6.70;2.72;;;8.90;99.90;;;;;;5073193;28;20202;-79
2021/12/20 05:50:23;;;;;;;15.77;3.08;;;9.00;99.90;;;;;;5071742;28;20170;-80
2021/12/20 05:52:48;;;;;;;4.45;2.33;;;9.20;99.90;;;;;;5073001;28;20220;-80
2021/12/20 05:55:15;;;;;;;14.10;2.70;;;9.30;99.90;;;;;;5073004;28;20686;-79
2021/12/20 05:57:41;;;;;;;12.27;3.17;;;9.20;99.90;;;;;;5071512;28;20697;-80
2021/12/20 06:00:12;;;;;;;14.85;3.05;;;9.20;99.90;;;;;;5073174;28;20174;-79
2021/12/20 06:02:38;;;;;;;8.68;2.95;;;9.40;99.90;;;;;;5072728;28;20196;-80
2021/12/20 06:05:04;;;;;;;18.10;2.63;;;9.30;99.90;;;;;;5071731;28;20186;-78
2021/12/20 06:07:30;;;;;;;11.23;3.40;;;9.20;99.90;;;;;;5072286;28;20210;-80
2021/12/20 06:09:56;;;;;;;11.18;2.63;;;9.20;99.90;;;;;;5072387;28;20546;-80
2021/12/20 06:12:21;;;;;;;12.05;3.20;;;9.00;99.90;;;;;;5072576;28;20170;-79
2021/12/20 06:14:47;;;;;;;8.73;2.10;;;8.90;99.90;;;;;;5072629;28;20171;-79
2021/12/20 06:17:12;;;;;;;12.23;3.28;;;9.20;99.90;;;;;;5072889;28;20173;-78
2021/12/20 06:19:39;;;;;;;6.95;2.13;;;9.20;99.90;;;;;;5071290;28;20550;-79
2021/12/20 06:22:07;;;;;;;9.65;2.22;;;9.00;99.90;;;;;;5072513;28;20155;-80
2021/12/20 06:24:33;;;;;;;26.45;3.72;;;9.00;99.90;;;;;;5071202;28;20239;-79
2021/12/20 06:26:59;;;;;;;12.73;2.75;;;9.20;99.90;;;;;;5072159;28;20195;-79
2021/12/20 06:29:25;;;;;;;9.60;2.33;;;8.90;99.90;;;;;;5072107;28;20171;-78
2021/12/20 06:31:51;;;;;;;12.52;2.25;;;9.10;99.90;;;;;;5070866;28;20170;-80
2021/12/20 06:34:17;;;;;;;7.38;1.83;;;9.10;99.90;;;;;;5072266;28;20639;-79
2021/12/20 06:36:43;;;;;;;7.32;2.88;;;9.20;99.90;;;;;;5072747;28;20170;-80
2021/12/20 06:39:09;;;;;;;11.95;2.08;;;9.00;99.90;;;;;;5072458;28;20643;-80
2021/12/20 06:41:34;;;;;;;8.32;2.30;;;9.20;99.90;;;;;;5072232;28;20650;-80
2021/12/20 06:44:02;;;;;;;4.32;1.92;;;9.10;99.90;;;;;;5072400;28;20175;-79
2021/12/20 06:46:28;;;;;;;11.38;3.17;;;9.10;99.90;;;;;;5072108;28;20154;-79
2021/12/20 06:48:54;;;;;;;26.65;3.33;;;9.30;99.90;;;;;;5072750;28;20201;-79
2021/12/20 06:51:20;;;;;;;15.38;3.38;;;9.20;99.90;;;;;;5072403;28;20166;-80
2021/12/20 06:53:45;;;;;;;6.75;2.05;;;9.30;99.90;;;;;;5071164;28;20181;-80
2021/12/20 06:56:12;;;;;;;7.47;2.30;;;9.30;99.90;;;;;;5071216;28;20585;-80
2021/12/20 06:58:38;;;;;;;12.50;2.05;;;9.30;99.90;;;;;;5072158;28;20623;-82
2021/12/20 07:01:04;;;;;;;11.82;2.70;;;9.40;99.90;;;;;;5072418;28;20169;-79
2021/12/20 07:03:30;;;;;;;9.55;2.65;;;9.30;99.90;;;;;;5072171;28;20812;-79
2021/12/20 07:05:55;;;;;;;22.38;2.67;;;9.30;99.90;;;;;;5071925;28;20170;-79
2021/12/20 07:08:22;;;;;;;25.17;2.95;;;9.20;99.90;;;;;;5071846;28;20635;-79
2021/12/20 07:10:48;;;;;;;16.98;2.42;;;8.80;99.90;;;;;;5074077;28;20170;-80
2021/12/20 07:13:15;;;;;;;15.75;2.58;;;8.90;99.90;;;;;;5078837;28;20158;-79
2021/12/20 07:15:40;;;;;;;7.40;2.10;;;9.00;99.90;;;;;;5082988;28;20170;-80
2021/12/20 07:18:06;;;;;;;13.70;2.10;;;8.90;99.90;;;;;;5081901;28;20193;-79
2021/12/20 07:20:32;;;;;;;19.67;3.22;;;8.90;99.90;;;;;;5077507;28;20296;-79
2021/12/20 07:22:58;;;;;;;16.17;3.42;;;8.80;99.90;;;;;;5089668;28;20158;-79
2021/12/20 07:25:24;;;;;;;19.02;3.03;;;8.80;99.90;;;;;;5100643;28;20209;-79
2021/12/20 07:27:51;;;;;;;5.80;2.53;;;8.80;99.90;;;;;;5082170;28;20241;-79
2021/12/20 07:30:17;;;;;;;19.38;2.33;;;8.90;99.90;;;;;;5082191;28;20151;-81
2021/12/20 07:32:43;;;;;;;16.63;2.17;;;8.70;99.90;;;;;;5083100;28;20174;-79
2021/12/20 07:35:09;;;;;;;12.93;2.67;;;8.60;99.90;;;;;;5090328;28;20600;-80
2021/12/20 07:37:36;;;;;;;24.65;2.95;;;8.60;99.90;;;;;;5076404;28;20205;-79
2021/12/20 07:40:02;;;;;;;25.33;2.72;;;8.60;99.90;;;;;;5075172;28;20536;-79
2021/12/20 07:42:27;;;;;;;13.70;2.10;;;8.60;99.90;;;;;;5075884;28;20224;-83
2021/12/20 07:44:53;;;;;;;7.10;1.75;;;8.80;99.90;;;;;;5076134;28;20167;-78
2021/12/20 07:47:21;;;;;;;17.77;2.47;;;8.90;99.90;;;;;;5084162;28;20232;-80
2021/12/20 07:49:47;;;;;;;20.25;2.53;;;9.00;99.90;;;;;;5091838;28;20179;-80
2021/12/20 07:52:14;;;;;;;16.85;2.88;;;9.10;99.90;;;;;;5087552;28;20174;-80
2021/12/20 07:54:40;;;;;;;15.98;2.78;;;9.00;99.90;;;;;;5088007;28;20170;-84
2021/12/20 07:57:05;;;;;;;21.38;3.38;;;8.90;99.90;;;;;;5084174;28;20654;-81
2021/12/20 07:59:34;;;;;;;17.58;3.45;;;8.90;99.90;;;;;;5083206;28;20174;-80
2021/12/20 08:02:00;;;;;;;14.90;2.33;;;9.20;99.90;;;;;;5086045;28;20190;-78
2021/12/20 08:04:26;;;;;;;12.10;2.47;;;9.00;99.90;;;;;;5082010;28;20224;-78
2021/12/20 08:06:53;;;;;;;15.38;1.95;;;9.10;99.90;;;;;;5088736;28;20195;-79
2021/12/20 08:09:21;;;;;;;15.93;2.70;;;8.90;99.90;;;;;;5090742;28;20578;-78
2021/12/20 08:11:47;;;;;;;14.93;2.63;;;9.00;99.90;;;;;;5088880;28;20625;-82
2021/12/20 08:14:12;;;;;;;20.73;2.85;;;8.90;99.90;;;;;;5092965;28;20167;-77
2021/12/20 08:16:38;;;;;;;15.68;2.13;;;8.80;99.90;;;;;;5094142;28;20174;-77
2021/12/20 08:19:04;;;;;;;10.32;2.47;;;8.70;99.90;;;;;;5091474;28;20250;-77
2021/12/20 08:21:30;;;;;;;14.00;2.40;;;8.70;99.90;;;;;;5080325;28;20179;-80
2021/12/20 08:23:59;;;;;;;21.77;1.90;;;8.50;99.90;;;;;;5086015;28;20170;-78
2021/12/20 08:26:26;;;;;;;18.83;2.90;;;8.40;99.90;;;;;;5076772;28;20236;-77
2021/12/20 08:28:52;;;;;;;16.42;3.28;;;8.40;99.90;;;;;;5074501;28;20232;-78
2021/12/20 08:31:18;;;;;;;9.20;2.10;;;8.60;99.90;;;;;;5075103;28;20171;-78
2021/12/20 08:33:43;;;;;;;11.68;2.33;;;8.60;99.90;;;;;;5074631;28;20216;-78
2021/12/20 08:36:12;;;;;;;10.93;2.45;;;8.60;99.90;;;;;;5069443;28;20722;-82
2021/12/20 08:38:39;;;;;;;21.77;2.60;;;8.70;99.90;;;;;;5073078;28;20669;-77
2021/12/20 08:41:05;;;;;;;21.90;3.42;;;8.60;99.90;;;;;;5073263;28;20174;-78
2021/12/20 08:43:31;;;;;;;10.63;2.08;;;8.60;99.90;;;;;;5072497;28;20199;-79
2021/12/20 08:45:59;;;;;;;13.35;3.10;;;8.60;99.90;;;;;;5073908;28;20626;-79
2021/12/20 08:48:26;;;;;;;12.82;2.03;;;8.60;99.90;;;;;;5073272;28;20623;-79
2021/12/20 08:50:51;;;;;;;16.00;2.95;;;8.70;99.90;;;;;;5073489;28;20163;-79
2021/12/20 08:53:17;;;;;;;15.30;3.00;;;8.60;99.90;;;;;;5073591;28;20645;-78
2021/12/20 08:55:43;;;;;;;11.90;2.80;;;8.80;99.90;;;;;;5073903;28;20635;-79
2021/12/20 08:58:08;;;;;;;20.42;2.58;;;8.90;99.90;;;;;;5073573;28;20198;-78
2021/12/20 09:00:36;;;;;;;8.38;1.50;;;9.00;99.90;;;;;;5073845;28;20166;-79
2021/12/20 09:03:02;;;;;;;7.28;2.00;;;8.90;99.90;;;;;;5073846;28;20159;-78
2021/12/20 09:05:30;;;;;;;5.70;1.80;;;9.00;99.90;;;;;;5075654;28;20178;-83
2021/12/20 09:07:59;;;;;;;17.90;2.35;;;9.00;99.90;;;;;;5072730;28;20264;-82
2021/12/20 09:10:25;;;;;;;15.73;2.20;;;9.10;99.90;;;;;;5075310;28;20162;-81
2021/12/20 09:12:51;;;;;;;16.38;2.15;;;8.90;99.90;;;;;;5087196;28;20257;-79
2021/12/20 09:15:18;;;;;;;16.40;2.55;;;9.00;99.90;;;;;;5089496;28;20159;-83
2021/12/20 09:17:50;;;;;;;12.85;3.00;;;8.90;99.90;;;;;;5079599;28;20573;-79
2021/12/20 09:20:19;;;;;;;11.55;2.22;;;8.90;99.90;;;;;;5081602;28;20225;-79
2021/12/20 09:23:02;;;;;;;18.15;2.72;;;9.10;99.90;;;;;;5089155;28;20174;-82
2021/12/20 09:25:28;;;;;;;15.20;2.58;;;9.30;99.90;;;;;;5094672;28;20191;-80
2021/12/20 09:27:56;;;;;;;21.55;2.75;;;9.40;99.90;;;;;;5093683;28;20210;-80
2021/12/20 09:30:25;;;;;;;14.27;2.40;;;9.40;99.90;;;;;;5092560;28;20171;-77
2021/12/20 09:32:50;;;;;;;13.73;3.13;;;9.50;99.90;;;;;;5075881;28;20170;-77
2021/12/20 09:35:16;;;;;;;18.10;2.20;;;9.50;99.90;;;;;;5074060;28;20170;-77
2021/12/20 09:37:42;;;;;;;15.55;2.63;;;9.50;99.90;;;;;;5073939;28;20185;-77
2021/12/20 09:40:13;;;;;;;17.88;2.17;;;9.60;99.90;;;;;;5072092;28;20166;-78
2021/12/20 09:42:48;;;;;;;12.07;1.80;;;9.80;99.90;;;;;;5073589;28;20181;-78
2021/12/20 09:45:21;;;;;;;15.65;2.35;;;9.80;99.90;;;;;;5073601;28;20154;-79
2021/12/20 09:47:47;;;;;;;11.65;2.70;;;9.70;99.90;;;;;;5073561;28;20674;-78
2021/12/20 09:50:13;;;;;;;17.55;2.78;;;9.90;99.90;;;;;;5073323;28;20620;-83
2021/12/20 09:52:42;;;;;;;19.20;2.38;;;10.10;99.90;;;;;;5073414;28;20178;-80
2021/12/20 09:55:09;;;;;;;11.98;2.03;;;10.10;99.90;;;;;;5071997;28;20631;-79
2021/12/20 09:57:36;;;;;;;13.93;2.63;;;10.10;99.90;;;;;;5073346;28;20240;-80
2021/12/20 10:00:07;;;;;;;25.90;2.50;;;9.90;99.90;;;;;;5073757;28;20163;-79
2021/12/20 10:02:32;;;;;;;20.05;3.05;;;9.90;99.90;;;;;;5073439;28;20167;-80
2021/12/20 10:04:58;;;;;;;14.05;3.08;;;9.80;99.90;;;;;;5072661;28;20163;-78
2021/12/20 10:07:25;;;;;;;17.42;2.67;;;9.90;99.90;;;;;;5072493;28;20576;-78
2021/12/20 10:09:52;;;;;;;20.55;2.97;;;10.00;99.90;;;;;;5072731;28;20992;-78
2021/12/20 10:12:23;;;;;;;21.90;2.72;;;10.20;99.90;;;;;;5071394;28;20186;-79
2021/12/20 10:15:07;;;;;;;12.88;2.10;;;10.00;99.90;;;;;;5073082;28;20158;-80
2021/12/20 10:17:50;;;;;;;17.42;2.78;;;10.10;99.90;;;;;;5071461;28;20189;-78
2021/12/20 10:20:24;;;;;;;16.83;2.95;;;10.20;99.90;;;;;;5072787;28;20171;-81
2021/12/20 10:22:52;;;;;;;12.45;2.83;;;9.90;99.90;;;;;;5072944;28;20163;-79
2021/12/20 10:25:28;;;;;;;14.80;3.00;;;10.00;99.90;;;;;;5072635;28;20265;-78
2021/12/20 10:28:02;;;;;;;20.77;3.08;;;10.20;99.90;;;;;;5072412;28;20201;-79
2021/12/20 10:30:38;;;;;;;14.23;2.33;;;10.20;99.90;;;;;;5072926;28;20166;-79
2021/12/20 10:33:04;;;;;;;21.10;2.65;;;10.20;99.90;;;;;;5072401;28;20162;-79
2021/12/20 10:35:35;;;;;;;20.33;3.17;;;10.20;99.90;;;;;;5072770;28;20211;-79
2021/12/20 10:38:19;;;;;;;9.18;2.40;;;10.00;99.90;;;;;;5068926;28;20198;-79
2021/12/20 10:40:50;;;;;;;16.55;2.33;;;10.00;99.90;;;;;;5070521;28;20178;-80
2021/12/20 10:43:24;;;;;;;7.03;1.95;;;9.90;99.90;;;;;;5072019;28;20166;-81
2021/12/20 10:45:52;;;;;;;10.75;2.33;;;9.80;99.90;;;;;;5064699;28;20638;-79
2021/12/20 10:48:18;;;;;;;21.52;2.47;;;9.70;99.90;;;;;;5067146;28;20225;-78
2021/12/20 10:50:44;;;;;;;21.02;3.05;;;9.60;99.90;;;;;;5067100;28;20163;-80
2021/12/20 10:53:24;;;;;;;22.40;3.47;;;9.90;99.90;;;;;;5069362;28;20162;-79
2021/12/20 10:56:03;;;;;;;19.95;3.15;;;10.20;99.90;;;;;;5070479;28;20215;-81
2021/12/20 10:58:38;;;;;;;18.38;2.78;;;10.10;99.90;;;;;;5070368;28;20182;-80
2021/12/20 11:01:16;;;;;;;24.38;3.25;;;10.30;99.90;;;;;;5070115;28;20176;-79
2021/12/20 11:03:44;;;;;;;10.02;1.83;;;10.30;99.90;;;;;;5069961;28;20257;-78
2021/12/20 11:09:04;;;;;;;13.77;2.15;;;9.80;99.90;;;;;;5072154;28;20704;-77
2021/12/20 11:11:32;;;;;;;8.13;2.08;;;9.50;99.90;;;;;;5070167;28;20518;-78
2021/12/20 11:13:59;;;;;;;22.20;3.13;;;9.70;99.90;;;;;;5069268;28;20523;-84
2021/12/20 11:16:45;;;;;;;11.77;2.00;;;9.70;99.90;;;;;;5068182;28;20258;-78
2021/12/20 11:19:38;;;;;;;14.23;2.60;;;9.70;99.90;;;;;;5066727;28;20290;-77
2021/12/20 11:22:08;;;;;;;12.35;3.42;;;9.60;99.90;;;;;;5068636;28;20186;-78
2021/12/20 11:24:36;;;;;;;11.07;2.40;;;9.70;99.90;;;;;;5069120;28;20219;-77
2021/12/20 11:27:03;;;;;;;12.13;2.65;;;9.60;99.90;;;;;;5069084;28;20209;-76
2021/12/20 11:29:30;;;;;;;18.55;2.35;;;9.60;99.90;;;;;;5070148;28;20531;-76
2021/12/20 11:31:57;;;;;;;10.40;2.15;;;9.60;99.90;;;;;;5069553;28;20165;-78
2021/12/20 11:34:24;;;;;;;11.65;2.83;;;9.60;99.90;;;;;;5069633;28;20315;-77
2021/12/20 11:36:51;;;;;;;20.60;2.97;;;9.70;99.90;;;;;;5069112;28;20175;-79
2021/12/20 11:39:17;;;;;;;11.32;2.75;;;9.60;99.90;;;;;;5070005;28;20190;-78
2021/12/20 11:41:43;;;;;;;11.93;2.50;;;9.50;99.90;;;;;;5069993;28;20269;-78
2021/12/20 11:44:14;;;;;;;10.07;1.85;;;9.50;99.90;;;;;;5069727;28;20170;-79
2021/12/20 11:47:08;;;;;;;15.38;1.80;;;9.50;99.90;;;;;;5070301;28;20565;-79
2021/12/20 11:49:36;;;;;;;19.40;2.25;;;9.50;99.90;;;;;;5070517;28;20555;-80
2021/12/20 11:52:19;;;;;;;15.35;2.63;;;9.40;99.90;;;;;;5069977;28;20242;-79
2021/12/20 11:54:52;;;;;;;13.15;2.05;;;9.40;99.90;;;;;;5070065;28;20320;-77
2021/12/20 11:57:37;;;;;;;8.93;1.63;;;9.60;99.90;;;;;;5070485;28;20199;-77
2021/12/20 12:00:21;;;;;;;12.23;2.03;;;9.70;99.90;;;;;;5070566;28;20166;-78
2021/12/20 12:02:50;;;;;;;13.93;2.10;;;9.80;99.90;;;;;;5072130;28;20223;-77
2021/12/20 12:05:54;;;;;;;5.93;1.77;;;9.70;99.90;;;;;;5072292;28;20969;-77
2021/12/20 12:08:22;;;;;;;7.93;2.20;;;9.80;99.90;;;;;;5074114;28;20610;-77
2021/12/20 12:10:49;;;;;;;15.77;2.90;;;9.90;99.90;;;;;;5074125;28;20266;-81
2021/12/20 12:13:16;;;;;;;10.90;2.13;;;9.80;99.90;;;;;;5073782;28;20154;-79
2021/12/20 12:16:25;;;;;;;8.75;1.65;;;9.60;99.90;;;;;;5067219;28;20220;-78
2021/12/20 12:18:48;;;;;;;11.23;2.40;;;9.80;99.90;;;;;;5053368;28;20199;-79
2021/12/20 12:21:32;;;;;;;13.07;1.63;;;9.40;99.90;;;;;;5054479;28;20566;-78
2021/12/20 12:23:58;;;;;;;7.47;1.83;;;9.30;99.90;;;;;;5053176;28;20620;-79
2021/12/20 12:26:33;;;;;;;9.98;1.95;;;9.20;99.90;;;;;;5054913;28;20195;-81
2021/12/20 12:28:59;;;;;;;6.65;1.80;;;9.00;99.90;;;;;;5053997;28;20214;-78
2021/12/20 12:31:26;;;;;;;9.38;2.03;;;9.00;99.90;;;;;;5054124;28;20167;-79
2021/12/20 12:34:11;;;;;;;19.90;3.05;;;9.10;99.90;;;;;;5054191;28;20616;-79
2021/12/20 12:36:42;;;;;;;3.80;1.50;;;9.00;99.90;;;;;;5054402;28;20301;-79
2021/12/20 12:39:25;;;;;;;9.68;1.50;;;8.80;99.90;;;;;;5054095;28;20191;-78
2021/12/20 12:41:55;;;;;;;7.65;1.17;;;9.00;99.90;;;;;;5053785;28;20250;-78
2021/12/20 12:44:31;;;;;;;4.75;1.70;;;9.00;99.90;;;;;;5054780;28;20168;-79
2021/12/20 12:47:13;;;;;;;7.93;1.50;;;9.10;99.90;;;;;;5054558;28;20208;-79
2021/12/20 12:49:47;;;;;;;22.60;1.67;;;9.10;99.90;;;;;;5053864;28;20222;-79
2021/12/20 12:52:15;;;;;;;5.45;1.27;;;9.10;99.90;;;;;;5053510;28;20528;-79
2021/12/20 12:54:56;;;;;;;6.38;1.88;;;9.20;99.90;;;;;;5053633;28;20171;-76
2021/12/20 12:57:21;;;;;;;9.80;1.73;;;9.20;99.90;;;;;;5054399;28;20183;-79
2021/12/20 12:59:50;;;;;;;10.63;1.45;;;9.10;99.90;;;;;;5053810;28;20213;-77
2021/12/20 13:02:22;;;;;;;4.15;1.25;;;9.10;99.90;;;;;;5054022;28;20190;-78
2021/12/20 13:04:51;;;;;;;3.92;1.27;;;9.20;99.90;;;;;;5054005;28;20171;-77
2021/12/20 13:07:21;;;;;;;9.95;1.70;;;9.30;99.90;;;;;;5053175;28;20203;-82
2021/12/20 13:09:49;;;;;;;9.23;1.98;;;9.60;99.90;;;;;;5053531;28;20178;-81
2021/12/20 13:12:23;;;;;;;12.85;1.70;;;9.50;99.90;;;;;;5053674;28;20191;-77